Portada
METAR-TAF:

METAR-TAF

Aeroports :

Moscou-Vnukovo, Rússia

latitud: 55-39N, longitud: 037-16E, altitud: 203 m

Observació

L'informe es va fer fa 44 minuts, a les 02:00 UTC
Vent calma
Temperatura 8°C
Humitat 87%
Pressió 1023 hPa
Visibilitat 10 km o més
sense núvols per sota de 1500 mi sense presència de cumulonimbus.

METAR: UUWW 280200Z 00000MPS CAVOK 08/06 Q1023 R06/000070 NOSIG

Hora: 05:44 (02:44 UTC)

Pronòstic

L'informe es va fer fa 54 minuts, a les 01:50 UTC
Pronòstic vàlid del 28 a les 03 UTC al 29 a les 03 UTC
Vent 4 kt del Sud
Visibilitat 10 km o més
Núvols disperses a una alçada de 2000 ft
Evolucionant progressivament
l' 28 a les 10 UTC al 28 a les 12 UTC
Vent 4 kt del Est/Sud-Est

TAF: UUWW 280150Z 2803/2903 18002MPS 9999 SCT020 TX21/2812Z TN09/2803Z BECMG 2810/2812 12002MPS

Observacions i pronòstics meteorològics de més de 4000 aeroports (METAR i TAF).

Les estacions disponibles són els punts grocs i vermells al mapa.

Posi el ratolí al punt desitjat per veure el nom de l'estació.

Feu clic per veure les observacions i els pronòstics meteorològics.

Per canviar el mapa: feu clic els botons verds amb una creu de color negre per apropar; al botó verd amb un guió per allunyar la imatge; o en les fletxes verdes per a mapes adjacents.


METAR-TAF: